Pagrindinis puslapis
METAR-TAF:

METAR-TAF

Oro uostai :

Bhubaneswar, Indija

platuma: 20-14-40N, ilguma: 85-49-04E, Aukštis: 45 m

Dabartinis oras

Ataskaita buvo paskelbta 27 minutes, ne 15:30 UTC
Ramus vėjas
Temperatūra 23°C
Drėgmė 73%
Slėgis 1014 hPa
Matomumas: 3000 m
migla

METAR: VEBS 191530Z 00000KT 3000 HZ NSC 23/18 Q1014 NOSIG

Laikas: 21:27 (15:57 UTC)

Prognozė

Ataskaita buvo paskelbta 1 valandą ir 57 minutes, ne 14:00 UTC
Prognozė galioja nuo 19 metu 15 UTC su 19 metu 24 UTC
Vėjas kt iš Šiaurės
Matomumas: 3000 m
migla
Tapsmas
nuo 19 metu 21 UTC su 19 metu 23 UTC
Matomumas: 2000 m
rūkana

TAF: VEBS 191400Z 1915/1924 00000KT 3000 HZ NSC BECMG 1921/1923 2000 BR

Orai ataskaitas ir orų prognozės (METAR, TAF).

turimą stotys yra geltonos ir raudonos taškus žemėlapyje.

Perkelti pele per norėdami pamatyti stoties vardą.

Tada spustelėkite, norėdami matyti oro stebėjimo ir prognozės.

Norėdami pakeisti žemėlapį: spustelėkite ant žalios mygtukų su juodo kryžiaus žemyn,; žalią mygtuką su brūkšneliu, jei norite nutolinti; arba žalių rodyklių gretimoms žemėlapius.


METAR-TAF: